Time;durP1;ratioP1;P1;durP2;ratioP2;P2;SDS_P1;SDS_P2;PMS_P1;PMS_P2;Temp;Humidity;BMP_temperature;BMP_pressure;BME280_temperature;BME280_humidity;BME280_pressure;Samples;Min_cycle;Max_cycle;Signal;HPM_P1;HPM_P2
2023/10/19 00:02:10;;;;;;;68.28;49.20;;;11.00;99.90;;;;;;6219023;23;20023;-77
2023/10/19 00:04:37;;;;;;;65.50;46.38;;;11.00;99.90;;;;;;6220707;23;20016;-77
2023/10/19 00:07:07;;;;;;;67.20;46.20;;;11.10;99.90;;;;;;6221781;23;20488;-78
2023/10/19 00:09:37;;;;;;;60.35;43.45;;;10.90;99.90;;;;;;6212561;23;20031;-78
2023/10/19 00:12:09;;;;;;;62.47;44.60;;;10.90;99.90;;;;;;6214663;23;20027;-76
2023/10/19 00:14:35;;;;;;;63.17;44.63;;;10.90;99.90;;;;;;6216916;23;20039;-78
2023/10/19 00:17:05;;;;;;;64.90;43.60;;;10.90;99.90;;;;;;6218648;23;20027;-78
2023/10/19 00:19:39;;;;;;;60.00;44.58;;;11.00;99.90;;;;;;6220839;23;20079;-77
2023/10/19 00:22:15;;;;;;;64.45;45.15;;;11.00;99.90;;;;;;6221540;23;20082;-79
2023/10/19 00:24:41;;;;;;;65.63;45.83;;;11.00;99.90;;;;;;6211898;23;20035;-76
2023/10/19 00:27:15;;;;;;;57.28;42.45;;;11.00;99.90;;;;;;6213708;23;20044;-78
2023/10/19 00:29:48;;;;;;;75.63;52.55;;;10.90;99.90;;;;;;6209006;23;20016;-78
2023/10/19 00:32:17;;;;;;;82.35;54.78;;;10.90;99.90;;;;;;6184016;23;20025;-77
2023/10/19 00:34:51;;;;;;;69.57;47.63;;;11.00;99.90;;;;;;6209246;23;20017;-78
2023/10/19 00:37:26;;;;;;;68.72;48.30;;;11.10;99.90;;;;;;6221591;23;20031;-78
2023/10/19 00:39:55;;;;;;;61.65;44.28;;;11.10;99.90;;;;;;6183999;23;20473;-77
2023/10/19 00:42:30;;;;;;;59.15;42.80;;;11.30;99.90;;;;;;6183552;23;20032;-80
2023/10/19 00:45:04;;;;;;;63.03;44.55;;;11.30;99.90;;;;;;6214284;23;20099;-77
2023/10/19 00:47:39;;;;;;;59.75;42.10;;;11.30;99.90;;;;;;6184195;23;20025;-78
2023/10/19 00:50:14;;;;;;;62.88;43.92;;;11.40;99.90;;;;;;6183356;23;20016;-78
2023/10/19 00:52:49;;;;;;;57.13;41.67;;;11.40;99.90;;;;;;6220280;23;20047;-79
2023/10/19 00:55:19;;;;;;;59.80;43.97;;;11.50;99.90;;;;;;6221063;23;20013;-78
2023/10/19 00:57:49;;;;;;;62.03;43.95;;;11.40;99.90;;;;;;6211300;23;20092;-79
2023/10/19 01:00:30;;;;;;;64.43;47.25;;;11.30;99.90;;;;;;6212277;23;20021;-77
2023/10/19 01:03:04;;;;;;;64.07;47.25;;;11.30;99.90;;;;;;6210008;23;20375;-79
2023/10/19 01:05:35;;;;;;;59.28;43.15;;;11.10;99.90;;;;;;6222546;23;20524;-79
2023/10/19 01:08:13;;;;;;;61.70;44.45;;;11.20;99.90;;;;;;6220894;23;20073;-80
2023/10/19 01:10:42;;;;;;;55.08;44.13;;;11.30;99.90;;;;;;6183719;23;20350;-79
2023/10/19 01:13:12;;;;;;;61.30;45.97;;;11.30;99.90;;;;;;6222006;23;20016;-78
2023/10/19 01:15:40;;;;;;;60.45;43.50;;;11.30;99.90;;;;;;6212650;23;20055;-77
2023/10/19 01:18:11;;;;;;;58.35;43.20;;;11.40;99.90;;;;;;6213993;23;20421;-78
2023/10/19 01:20:50;;;;;;;58.20;41.78;;;11.40;99.90;;;;;;6216547;23;20086;-79
2023/10/19 01:23:25;;;;;;;59.92;44.17;;;11.50;99.90;;;;;;6226934;23;20040;-79
2023/10/19 01:26:07;;;;;;;57.78;45.70;;;11.50;99.90;;;;;;6205443;23;20036;-78
2023/10/19 01:28:48;;;;;;;63.75;46.95;;;11.50;99.90;;;;;;6201388;23;20036;-78
2023/10/19 01:31:22;;;;;;;58.40;44.75;;;11.50;99.90;;;;;;6234222;23;20017;-78
2023/10/19 01:33:50;;;;;;;56.42;45.42;;;11.40;99.90;;;;;;6227930;23;20477;-78
2023/10/19 01:36:26;;;;;;;61.00;44.15;;;11.40;99.90;;;;;;6219817;23;20028;-79
2023/10/19 01:38:55;;;;;;;;;;;11.30;99.90;;;;;;6224434;23;20043;-79
2023/10/19 01:41:23;;;;;;;55.65;41.40;;;11.30;99.90;;;;;;6229275;23;19966;-79
2023/10/19 01:43:53;;;;;;;54.50;40.33;;;11.30;99.90;;;;;;6197476;23;20020;-78
2023/10/19 01:46:25;;;;;;;54.00;40.40;;;11.30;99.90;;;;;;6235131;23;20044;-76
2023/10/19 01:48:56;;;;;;;56.72;40.92;;;11.30;99.90;;;;;;6217608;23;20047;-77
2023/10/19 01:51:24;;;;;;;58.22;40.53;;;11.30;99.90;;;;;;6191535;23;20040;-79
2023/10/19 01:53:51;;;;;;;56.83;41.58;;;11.20;99.90;;;;;;6220347;23;20055;-77
2023/10/19 01:56:21;;;;;;;60.65;44.58;;;11.20;99.90;;;;;;6190258;23;20029;-78
2023/10/19 01:58:51;;;;;;;63.92;42.72;;;11.20;99.90;;;;;;6186117;23;20023;-77
2023/10/19 02:01:28;;;;;;;58.13;40.13;;;11.10;99.90;;;;;;6187136;23;20445;-78
2023/10/19 02:03:58;;;;;;;51.95;38.08;;;11.00;99.90;;;;;;6186025;23;20024;-78
2023/10/19 02:06:27;;;;;;;52.28;38.00;;;10.80;99.90;;;;;;6214650;23;20017;-78
2023/10/19 02:09:00;;;;;;;46.22;34.42;;;10.70;99.90;;;;;;6184551;23;20017;-77
2023/10/19 02:11:28;;;;;;;44.25;33.80;;;10.70;99.90;;;;;;6217912;23;20029;-80
2023/10/19 02:13:59;;;;;;;45.42;32.92;;;10.80;99.90;;;;;;6220604;23;20457;-77
2023/10/19 02:16:29;;;;;;;44.20;34.10;;;10.80;99.90;;;;;;6186174;23;20572;-79
2023/10/19 02:18:57;;;;;;;49.45;35.35;;;10.80;99.90;;;;;;6213418;23;20025;-78
2023/10/19 02:21:27;;;;;;;48.53;35.78;;;10.80;99.90;;;;;;6190649;23;20073;-79
2023/10/19 02:23:54;;;;;;;46.15;33.65;;;10.80;99.90;;;;;;6224709;23;20016;-78
2023/10/19 02:26:22;;;;;;;45.40;34.05;;;10.70;99.90;;;;;;6226772;23;20096;-78
2023/10/19 02:28:52;;;;;;;45.10;34.38;;;10.70;99.90;;;;;;6191326;23;20096;-78
2023/10/19 02:31:19;;;;;;;40.75;31.40;;;10.80;99.90;;;;;;6191243;23;20457;-78
2023/10/19 02:33:51;;;;;;;42.58;31.08;;;10.80;99.90;;;;;;6219938;23;20024;-79
2023/10/19 02:36:19;;;;;;;44.10;32.63;;;10.80;99.90;;;;;;6193176;23;20020;-77
2023/10/19 02:38:50;;;;;;;43.78;32.53;;;10.90;99.90;;;;;;6223521;23;20023;-80
2023/10/19 02:41:18;;;;;;;41.80;32.58;;;10.80;99.90;;;;;;6225544;23;20020;-80
2023/10/19 02:43:50;;;;;;;43.75;32.97;;;10.90;99.90;;;;;;6191767;23;20082;-79
2023/10/19 02:46:18;;;;;;;41.53;32.28;;;10.90;99.90;;;;;;6191236;23;20100;-77
2023/10/19 02:48:47;;;;;;;35.70;27.60;;;10.90;99.90;;;;;;6215286;23;20334;-79
2023/10/19 02:51:13;;;;;;;45.38;29.10;;;10.90;99.90;;;;;;6219871;23;20020;-79
2023/10/19 02:53:42;;;;;;;55.03;36.03;;;11.00;99.90;;;;;;6219183;23;20028;-79
2023/10/19 02:56:12;;;;;;;43.55;32.10;;;11.00;99.90;;;;;;6187776;23;20395;-77
2023/10/19 02:58:48;;;;;;;49.58;35.67;;;11.10;99.90;;;;;;6189368;23;20017;-78
2023/10/19 03:01:21;;;;;;;50.30;36.40;;;11.20;99.90;;;;;;6229351;23;20096;-77
2023/10/19 03:03:54;;;;;;;48.10;36.30;;;11.10;99.90;;;;;;6216930;23;20025;-79
2023/10/19 03:06:21;;;;;;;37.97;29.25;;;11.00;99.90;;;;;;6204204;23;20025;-80
2023/10/19 03:08:57;;;;;;;37.35;28.70;;;10.90;99.90;;;;;;6230015;23;20449;-80
2023/10/19 03:11:24;;;;;;;36.08;28.52;;;10.80;99.90;;;;;;6194194;23;20048;-79
2023/10/19 03:13:51;;;;;;;36.85;28.83;;;11.00;99.90;;;;;;6196888;23;20021;-78
2023/10/19 03:16:19;;;;;;;39.88;31.38;;;11.10;99.90;;;;;;6230202;23;20023;-79
2023/10/19 03:18:46;;;;;;;37.47;28.85;;;11.10;99.90;;;;;;6223969;23;20024;-78
2023/10/19 03:21:14;;;;;;;36.35;28.38;;;11.30;99.90;;;;;;6228636;23;20032;-79
2023/10/19 03:23:41;;;;;;;38.05;28.88;;;11.20;99.90;;;;;;6228771;23;20517;-79
2023/10/19 03:26:27;;;;;;;42.38;33.00;;;11.30;99.90;;;;;;6197096;23;20060;-77
2023/10/19 03:29:02;;;;;;;47.75;35.38;;;11.30;99.90;;;;;;6203851;23;20021;-80
2023/10/19 03:31:32;;;;;;;42.70;33.15;;;11.30;99.90;;;;;;6203411;23;20328;-80
2023/10/19 03:34:04;;;;;;;41.60;32.22;;;11.40;99.90;;;;;;6243589;23;20012;-79
2023/10/19 03:36:33;;;;;;;43.15;31.55;;;11.40;99.90;;;;;;6204779;23;20077;-80
2023/10/19 03:39:11;;;;;;;48.35;33.58;;;11.40;99.90;;;;;;6204618;23;20067;-79
2023/10/19 03:41:42;;;;;;;40.28;31.33;;;11.40;99.90;;;;;;6204566;23;20089;-79
2023/10/19 03:44:16;;;;;;;41.72;31.55;;;11.40;99.90;;;;;;6201833;23;20028;-79
2023/10/19 03:46:56;;;;;;;43.55;32.75;;;11.40;99.90;;;;;;6239146;23;20032;-78
2023/10/19 03:49:26;;;;;;;41.83;31.33;;;11.40;42.20;;;;;;6202911;23;20142;-79
2023/10/19 03:52:19;;;;;;;43.88;32.83;;;11.40;38.10;;;;;;6202592;23;20044;-80
2023/10/19 03:54:48;;;;;;;43.53;32.05;;;11.40;17.70;;;;;;6221999;23;20017;-78
2023/10/19 03:57:19;;;;;;;39.35;29.95;;;11.40;1.00;;;;;;6221598;23;20481;-79
2023/10/19 03:59:50;;;;;;;38.85;28.65;;;11.20;53.50;;;;;;6217072;23;20016;-79
2023/10/19 04:02:20;;;;;;;38.63;30.20;;;11.20;99.90;;;;;;6210929;23;20396;-79
2023/10/19 04:04:49;;;;;;;39.13;29.50;;;11.20;99.90;;;;;;6221747;23;20039;-81
2023/10/19 04:07:20;;;;;;;38.53;29.17;;;11.20;99.90;;;;;;6223511;23;20020;-79
2023/10/19 04:10:09;;;;;;;42.03;31.15;;;11.30;99.90;;;;;;6212741;23;20021;-80
2023/10/19 04:12:37;;;;;;;35.28;28.30;;;11.30;99.90;;;;;;6214142;23;20033;-79
2023/10/19 04:15:13;;;;;;;39.40;28.63;;;11.40;99.90;;;;;;6212996;23;20116;-79
2023/10/19 04:17:42;;;;;;;37.90;28.70;;;11.30;99.90;;;;;;6215554;23;20044;-77
2023/10/19 04:20:26;;;;;;;39.65;29.77;;;11.30;99.90;;;;;;6228972;23;20021;-79
2023/10/19 04:22:56;;;;;;;43.13;30.92;;;11.30;99.90;;;;;;6221912;23;20025;-79
2023/10/19 04:25:25;;;;;;;44.70;31.20;;;11.20;99.90;;;;;;6225527;23;20019;-78
2023/10/19 04:27:53;;;;;;;40.55;29.92;;;11.30;99.90;;;;;;6214232;23;20017;-78
2023/10/19 04:30:22;;;;;;;37.72;27.50;;;11.20;99.90;;;;;;6216620;23;20083;-80
2023/10/19 04:32:51;;;;;;;38.28;28.15;;;11.30;99.90;;;;;;6218395;23;20079;-79
2023/10/19 04:35:22;;;;;;;46.60;33.53;;;11.30;99.90;;;;;;6222117;23;20036;-80
2023/10/19 04:37:50;;;;;;;54.38;36.00;;;11.30;99.90;;;;;;6233221;23;20071;-79
2023/10/19 04:40:19;;;;;;;49.22;34.10;;;11.30;99.90;;;;;;6236897;23;20019;-77
2023/10/19 04:42:47;;;;;;;64.30;40.50;;;11.30;99.90;;;;;;6217308;23;20031;-79
2023/10/19 04:45:14;;;;;;;50.67;35.03;;;11.30;99.90;;;;;;6205753;23;20079;-78
2023/10/19 04:47:42;;;;;;;53.85;34.92;;;11.20;99.90;;;;;;6217731;23;20024;-77
2023/10/19 04:50:12;;;;;;;49.00;34.65;;;11.20;99.90;;;;;;6218923;23;20020;-78
2023/10/19 04:52:40;;;;;;;43.50;33.15;;;11.20;99.90;;;;;;6221416;23;20489;-79
2023/10/19 04:55:08;;;;;;;46.72;31.98;;;11.20;99.90;;;;;;6223501;23;20013;-79
2023/10/19 04:57:37;;;;;;;52.97;33.47;;;11.20;99.90;;;;;;6214121;23;20096;-77
2023/10/19 05:00:05;;;;;;;48.65;34.92;;;11.20;99.90;;;;;;6223344;23;20024;-78
2023/10/19 05:02:32;;;;;;;54.13;37.67;;;11.10;99.90;;;;;;6216949;23;20035;-77
2023/10/19 05:05:00;;;;;;;48.42;35.30;;;11.00;99.90;;;;;;6218754;23;20028;-79
2023/10/19 05:07:28;;;;;;;54.35;40.42;;;11.00;99.90;;;;;;6221339;23;20016;-79
2023/10/19 05:09:56;;;;;;;51.13;38.67;;;11.00;99.90;;;;;;6221636;23;20088;-78
2023/10/19 05:12:23;;;;;;;48.65;37.03;;;11.00;99.90;;;;;;6213910;23;20404;-78
2023/10/19 05:14:52;;;;;;;52.65;38.72;;;11.00;99.90;;;;;;6215859;23;20562;-78
2023/10/19 05:17:21;;;;;;;55.92;37.60;;;11.00;99.90;;;;;;6218602;23;20464;-79
2023/10/19 05:19:54;;;;;;;52.60;37.85;;;11.10;99.90;;;;;;6220101;23;20020;-79
2023/10/19 05:22:24;;;;;;;68.50;43.05;;;11.10;99.90;;;;;;6222622;23;20028;-79
2023/10/19 05:24:52;;;;;;;85.78;45.85;;;11.10;99.90;;;;;;6211325;23;20025;-81
2023/10/19 05:27:19;;;;;;;57.25;38.55;;;11.00;99.90;;;;;;6213729;23;20025;-80
2023/10/19 05:29:47;;;;;;;50.67;35.20;;;11.00;99.90;;;;;;6214680;23;20072;-79
2023/10/19 05:32:15;;;;;;;58.65;40.20;;;11.00;99.90;;;;;;6217372;23;20469;-78
2023/10/19 05:34:43;;;;;;;56.40;39.58;;;10.90;99.90;;;;;;6219748;23;20040;-78
2023/10/19 05:37:10;;;;;;;55.03;38.55;;;11.00;99.90;;;;;;6221351;23;20017;-78
2023/10/19 05:39:38;;;;;;;58.08;40.70;;;11.00;99.90;;;;;;6211443;23;20487;-80
2023/10/19 05:42:05;;;;;;;54.53;37.40;;;11.00;99.90;;;;;;6213782;23;20052;-80
2023/10/19 05:44:33;;;;;;;53.08;36.88;;;11.10;99.90;;;;;;6216658;23;20040;-79
2023/10/19 05:47:02;;;;;;;66.28;44.55;;;11.20;99.90;;;;;;6218596;23;20028;-77
2023/10/19 05:49:31;;;;;;;48.53;35.17;;;11.30;99.90;;;;;;6220880;23;20016;-78
2023/10/19 05:51:58;;;;;;;44.20;33.20;;;11.50;99.90;;;;;;6221516;23;20099;-78
2023/10/19 05:54:26;;;;;;;44.15;33.00;;;11.50;99.90;;;;;;6183759;23;20114;-80
2023/10/19 05:56:54;;;;;;;40.83;29.80;;;11.60;99.90;;;;;;6214365;23;20024;-77
2023/10/19 05:59:23;;;;;;;50.13;35.25;;;11.60;99.90;;;;;;6184765;23;20021;-79
2023/10/19 06:01:51;;;;;;;55.58;38.92;;;11.70;99.90;;;;;;6219776;23;20052;-80
2023/10/19 06:04:20;;;;;;;59.85;40.10;;;11.80;99.90;;;;;;6185046;23;20036;-79
2023/10/19 06:06:49;;;;;;;53.60;40.47;;;11.90;99.90;;;;;;6210332;23;20075;-78
2023/10/19 06:09:17;;;;;;;41.90;30.83;;;11.90;99.90;;;;;;6213229;23;20017;-81
2023/10/19 06:11:44;;;;;;;52.53;35.70;;;12.00;99.90;;;;;;6234904;22;20102;-74
2023/10/19 06:14:12;;;;;;;43.25;32.92;;;12.10;99.90;;;;;;6218485;23;20039;-77
2023/10/19 06:16:39;;;;;;;42.35;30.80;;;12.20;99.90;;;;;;6255650;23;20078;-76
2023/10/19 06:19:07;;;;;;;40.22;28.33;;;12.30;99.90;;;;;;6217353;22;20016;-74
2023/10/19 06:21:34;;;;;;;40.45;29.02;;;12.50;75.80;;;;;;6253133;23;20095;-75
2023/10/19 06:24:03;;;;;;;38.28;28.00;;;12.70;1.00;;;;;;6255703;23;20042;-76
2023/10/19 06:26:31;;;;;;;33.97;26.52;;;12.80;1.00;;;;;;6229850;23;20100;-76
2023/10/19 06:28:59;;;;;;;35.00;24.02;;;13.00;1.00;;;;;;6251934;22;20510;-79
2023/10/19 06:31:28;;;;;;;32.97;23.08;;;13.20;99.90;;;;;;6243844;23;20078;-80
2023/10/19 06:33:56;;;;;;;28.80;20.92;;;13.20;97.50;;;;;;6216299;23;20575;-78
2023/10/19 06:36:24;;;;;;;29.17;20.65;;;13.30;1.00;;;;;;6215796;23;20042;-78
2023/10/19 06:38:51;;;;;;;33.00;22.98;;;13.50;7.70;;;;;;6246530;23;20051;-78
2023/10/19 06:41:20;;;;;;;34.47;26.00;;;13.80;99.90;;;;;;6202974;23;20600;-77
2023/10/19 06:43:48;;;;;;;34.67;24.60;;;14.10;99.90;;;;;;6215858;23;20454;-78
2023/10/19 06:46:15;;;;;;;34.22;24.67;;;14.40;1.00;;;;;;6254300;23;20087;-77
2023/10/19 06:48:43;;;;;;;30.15;21.15;;;14.60;1.00;;;;;;6215904;23;20069;-77
2023/10/19 06:51:11;;;;;;;34.95;23.45;;;14.60;1.00;;;;;;6240067;23;20491;-79
2023/10/19 06:53:39;;;;;;;31.88;24.17;;;14.60;1.00;;;;;;6214982;23;20024;-78
2023/10/19 06:56:06;;;;;;;36.83;27.27;;;14.50;1.00;;;;;;6241191;23;20405;-79
2023/10/19 06:58:36;;;;;;;34.30;25.52;;;14.50;1.00;;;;;;6239448;23;20396;-75
2023/10/19 07:01:08;;;;;;;35.63;24.35;;;14.60;1.00;;;;;;6215738;23;20016;-75
2023/10/19 07:03:35;;;;;;;36.83;24.02;;;14.60;1.00;;;;;;6216184;23;20020;-76
2023/10/19 07:06:03;;;;;;;39.17;24.77;;;14.60;99.90;;;;;;6240138;23;20086;-76
2023/10/19 07:08:31;;;;;;;33.42;23.52;;;14.60;99.90;;;;;;6217447;23;20020;-75
2023/10/19 07:10:59;;;;;;;29.00;21.90;;;14.80;99.90;;;;;;6217673;23;20026;-77
2023/10/19 07:13:27;;;;;;;30.15;20.85;;;15.10;99.90;;;;;;6219200;23;20531;-76
2023/10/19 07:15:56;;;;;;;33.90;22.13;;;15.30;1.00;;;;;;6233579;23;20239;-77
2023/10/19 07:18:23;;;;;;;30.42;20.55;;;15.60;99.90;;;;;;6262881;23;20044;-74
2023/10/19 07:20:52;;;;;;;26.90;19.15;;;15.90;1.00;;;;;;6234266;23;20018;-78
2023/10/19 07:23:21;;;;;;;28.63;18.55;;;16.30;99.90;;;;;;6256535;23;20021;-77
2023/10/19 07:25:54;;;;;;;25.73;18.83;;;16.50;1.00;;;;;;6254723;23;20034;-76
2023/10/19 07:28:22;;;;;;;26.85;19.08;;;16.60;1.00;;;;;;6208293;23;20016;-74
2023/10/19 07:30:51;;;;;;;31.15;20.20;;;16.60;1.00;;;;;;6220261;23;20106;-74
2023/10/19 07:33:34;;;;;;;27.25;19.98;;;16.60;1.00;;;;;;6249978;23;20020;-75
2023/10/19 07:36:06;;;;;;;30.23;22.33;;;16.60;1.00;;;;;;6248650;23;20028;-75
2023/10/19 07:38:38;;;;;;;29.10;19.98;;;16.70;1.00;;;;;;6243567;22;20095;-75
2023/10/19 07:41:06;;;;;;;29.75;20.67;;;16.70;1.00;;;;;;6252405;23;20028;-75
2023/10/19 07:43:33;;;;;;;30.88;20.58;;;16.80;1.00;;;;;;6253990;23;20131;-75
2023/10/19 07:46:01;;;;;;;31.40;21.17;;;16.90;99.90;;;;;;6217254;23;20043;-75
2023/10/19 07:48:28;;;;;;;31.55;21.67;;;17.00;99.90;;;;;;6246605;22;20024;-75
2023/10/19 07:54:50;;;;;;;32.83;20.17;;;17.30;99.90;;;;;;6078092;23;20030;-77
2023/10/19 07:57:20;;;;;;;39.13;28.02;;;17.30;99.90;;;;;;6118086;23;20049;-77
2023/10/19 07:59:48;;;;;;;31.08;21.75;;;17.60;99.90;;;;;;6180143;23;20028;-80
2023/10/19 08:02:15;;;;;;;30.45;20.45;;;18.00;99.90;;;;;;6148674;23;20089;-78
2023/10/19 08:04:45;;;;;;;26.77;16.98;;;18.30;1.00;;;;;;6187356;23;20073;-76
2023/10/19 08:07:13;;;;;;;22.55;12.60;;;18.50;1.00;;;;;;6151135;23;20125;-76
2023/10/19 08:09:40;;;;;;;25.85;15.70;;;18.60;1.00;;;;;;6177706;23;20060;-76
2023/10/19 08:12:09;;;;;;;17.75;11.88;;;18.60;1.00;;;;;;6173367;23;20022;-77
2023/10/19 08:14:38;;;;;;;14.75;10.48;;;18.60;1.00;;;;;;6157094;23;20026;-79
2023/10/19 08:17:08;;;;;;;17.88;10.32;;;18.90;99.90;;;;;;6162062;23;20041;-79
2023/10/19 08:19:36;;;;;;;17.08;9.73;;;19.10;1.00;;;;;;6127004;23;20074;-75
2023/10/19 08:22:04;;;;;;;13.00;9.60;;;19.20;1.00;;;;;;6169463;23;20531;-77
2023/10/19 08:24:34;;;;;;;12.73;9.32;;;19.30;1.00;;;;;;6188690;23;20024;-76
2023/10/19 08:27:05;;;;;;;11.27;7.53;;;19.30;14.80;;;;;;6260198;23;20024;-76
2023/10/19 08:29:35;;;;;;;12.38;8.65;;;19.50;1.00;;;;;;6260560;22;20108;-77
2023/10/19 08:32:02;;;;;;;11.35;6.82;;;19.70;1.00;;;;;;6266991;23;20026;-77
2023/10/19 08:34:30;;;;;;;10.20;5.88;;;19.90;1.00;;;;;;6255353;23;20035;-77
2023/10/19 08:36:59;;;;;;;10.30;6.45;;;20.10;99.30;;;;;;6218894;23;20023;-78
2023/10/19 08:39:28;;;;;;;11.30;6.57;;;20.30;99.90;;;;;;6217198;23;20339;-79
2023/10/19 08:41:55;;;;;;;8.73;4.82;;;20.50;99.90;;;;;;6227552;23;20059;-77
2023/10/19 08:44:25;;;;;;;9.63;5.45;;;20.60;99.90;;;;;;6233517;23;20024;-77
2023/10/19 08:46:54;;;;;;;9.88;5.80;;;20.70;99.90;;;;;;6222551;23;20099;-82
2023/10/19 08:49:22;;;;;;;11.27;6.25;;;20.60;99.90;;;;;;6226648;23;20076;-78
2023/10/19 08:51:52;;;;;;;11.20;5.70;;;20.70;99.90;;;;;;6250528;23;20024;-80
2023/10/19 08:54:20;;;;;;;10.05;5.72;;;20.80;99.90;;;;;;6254520;23;20475;-79
2023/10/19 08:56:49;;;;;;;11.68;5.05;;;21.00;99.90;;;;;;6267872;23;20063;-78
2023/10/19 08:59:16;;;;;;;8.43;5.45;;;21.30;99.90;;;;;;6221422;23;20123;-77
2023/10/19 09:01:44;;;;;;;9.40;6.00;;;21.60;99.90;;;;;;6254011;23;20110;-77
2023/10/19 09:04:16;;;;;;;12.55;8.00;;;21.70;99.90;;;;;;6245129;23;20026;-79
2023/10/19 09:06:45;;;;;;;8.65;4.40;;;21.90;99.90;;;;;;6217061;23;20395;-77
2023/10/19 09:09:16;;;;;;;13.40;7.72;;;21.70;99.90;;;;;;6247988;22;20030;-78
2023/10/19 09:11:44;;;;;;;24.40;17.75;;;21.80;99.90;;;;;;6215881;23;20036;-76
2023/10/19 09:14:12;;;;;;;9.73;6.18;;;21.80;99.90;;;;;;6249617;23;20051;-76
2023/10/19 09:16:55;;;;;;;11.77;5.72;;;21.70;99.90;;;;;;6252823;23;20063;-78
2023/10/19 09:19:40;;;;;;;9.05;5.38;;;21.80;99.90;;;;;;6252826;22;20127;-77
2023/10/19 09:22:16;;;;;;;10.98;5.72;;;21.80;99.90;;;;;;6218603;23;20024;-78
2023/10/19 09:24:45;;;;;;;9.40;6.15;;;21.80;99.90;;;;;;6245973;23;20111;-78
2023/10/19 09:27:13;;;;;;;13.75;5.63;;;21.80;99.90;;;;;;6217985;23;20020;-76
2023/10/19 09:29:41;;;;;;;12.88;4.70;;;22.00;99.90;;;;;;6260712;22;20036;-78
2023/10/19 09:32:09;;;;;;;11.50;7.88;;;22.10;99.90;;;;;;6271073;23;20039;-76
2023/10/19 09:34:40;;;;;;;10.48;6.90;;;22.30;99.90;;;;;;6272278;23;20008;-77
2023/10/19 09:37:08;;;;;;;10.40;5.80;;;22.50;99.90;;;;;;6266523;23;20027;-77
2023/10/19 09:39:35;;;;;;;10.00;4.78;;;22.60;99.90;;;;;;6259012;22;20042;-78
2023/10/19 09:42:06;;;;;;;10.07;5.22;;;22.70;99.90;;;;;;6265705;23;20023;-77
2023/10/19 09:44:42;;;;;;;7.10;4.60;;;22.80;99.90;;;;;;6264875;23;20048;-77
2023/10/19 09:47:13;;;;;;;10.73;5.22;;;23.00;99.90;;;;;;6257354;23;20020;-76
2023/10/19 09:49:43;;;;;;;10.82;5.28;;;23.30;99.90;;;;;;6268784;22;20022;-77
2023/10/19 09:52:13;;;;;;;8.52;5.38;;;23.50;99.90;;;;;;6233871;23;20052;-77
2023/10/19 09:54:53;;;;;;;13.85;9.10;;;23.70;99.90;;;;;;6234191;23;20082;-77
2023/10/19 09:57:28;;;;;;;7.75;4.50;;;23.80;99.90;;;;;;6261993;23;20028;-77
2023/10/19 10:00:07;;;;;;;8.20;5.05;;;23.90;99.90;;;;;;6262170;22;20020;-79
2023/10/19 10:02:41;;;;;;;8.85;5.05;;;23.80;99.90;;;;;;6244700;23;20020;-77
2023/10/19 10:05:43;;;;;;;12.00;7.93;;;23.70;99.90;;;;;;6261638;23;20104;-78
2023/10/19 10:08:42;;;;;;;8.75;4.85;;;24.00;99.90;;;;;;6242061;22;20036;-78
2023/10/19 10:11:30;;;;;;;11.43;6.75;;;24.30;99.90;;;;;;6150424;23;20050;-78
2023/10/19 10:13:59;;;;;;;13.57;7.85;;;24.40;99.90;;;;;;6235677;23;20070;-78
2023/10/19 10:16:27;;;;;;;14.55;6.97;;;24.60;99.90;;;;;;6255373;23;20013;-77
2023/10/19 10:18:59;;;;;;;9.35;4.80;;;24.40;99.90;;;;;;6242636;22;20387;-76
2023/10/19 10:21:26;;;;;;;7.88;4.55;;;24.50;99.90;;;;;;6217377;23;20024;-78
2023/10/19 10:23:57;;;;;;;9.30;4.32;;;24.70;99.90;;;;;;6217476;23;20032;-78
2023/10/19 10:26:29;;;;;;;9.30;5.35;;;24.90;99.90;;;;;;6249834;23;20095;-77
2023/10/19 10:29:59;;;;;;;9.40;4.38;;;25.00;99.90;;;;;;6250108;22;20035;-76
2023/10/19 10:33:01;;;;;;;23.95;16.20;;;25.10;99.90;;;;;;6176943;23;20088;-81
2023/10/19 10:35:55;;;;;;;10.38;4.63;;;24.90;99.90;;;;;;6175840;23;20025;-78
2023/10/19 10:38:29;;;;;;;103.72;80.00;;;24.90;99.90;;;;;;6131646;23;20037;-78
2023/10/19 10:41:01;;;;;;;14.48;9.20;;;24.70;99.90;;;;;;6156348;23;20057;-76
2023/10/19 10:43:29;;;;;;;80.13;62.67;;;24.70;99.90;;;;;;6192811;23;20016;-76
2023/10/19 10:46:05;;;;;;;18.50;13.32;;;24.60;99.90;;;;;;6192401;23;20017;-76
2023/10/19 10:48:32;;;;;;;9.52;4.60;;;24.50;99.90;;;;;;6157457;23;20099;-75
2023/10/19 10:51:00;;;;;;;8.77;4.18;;;24.70;99.90;;;;;;6185527;23;20025;-77
2023/10/19 10:53:27;;;;;;;6.57;3.85;;;24.90;99.90;;;;;;6188897;23;20032;-75
2023/10/19 10:55:55;;;;;;;12.88;7.88;;;25.10;99.90;;;;;;6190209;23;20029;-75
2023/10/19 10:58:27;;;;;;;10.07;4.18;;;25.10;99.90;;;;;;6191188;23;20081;-76
2023/10/19 11:00:55;;;;;;;10.38;5.68;;;25.30;99.90;;;;;;6183372;23;20123;-75
2023/10/19 11:03:25;;;;;;;10.18;4.13;;;25.40;99.90;;;;;;6182223;23;20031;-75
2023/10/19 11:05:54;;;;;;;9.27;4.40;;;25.50;99.90;;;;;;6202010;23;20055;-76
2023/10/19 11:08:26;;;;;;;7.35;3.70;;;25.30;99.90;;;;;;6248820;22;20028;-76
2023/10/19 11:10:54;;;;;;;9.35;3.92;;;25.50;99.90;;;;;;6217915;23;20340;-76
2023/10/19 11:13:28;;;;;;;7.28;3.60;;;25.40;99.90;;;;;;6256958;23;20020;-75
2023/10/19 11:15:57;;;;;;;9.00;3.97;;;25.40;99.90;;;;;;6242890;23;20357;-77
2023/10/19 11:18:32;;;;;;;9.98;4.22;;;25.40;99.90;;;;;;6245190;22;20024;-77
2023/10/19 11:21:04;;;;;;;9.88;3.58;;;25.80;99.90;;;;;;6217753;23;20456;-75
2023/10/19 11:23:39;;;;;;;10.40;4.28;;;25.90;99.90;;;;;;6249078;23;20028;-76
2023/10/19 11:26:07;;;;;;;7.15;3.67;;;25.80;99.90;;;;;;6247791;23;20059;-78
2023/10/19 11:28:42;;;;;;;8.20;3.78;;;25.70;99.90;;;;;;6258146;22;20013;-78
2023/10/19 11:31:14;;;;;;;10.82;4.78;;;25.50;99.90;;;;;;6260596;23;20195;-81
2023/10/19 11:33:43;;;;;;;9.18;4.13;;;25.30;99.90;;;;;;6247603;23;20092;-76
2023/10/19 11:36:12;;;;;;;8.18;4.15;;;25.10;99.90;;;;;;6248014;23;20048;-76
2023/10/19 11:38:41;;;;;;;11.27;3.67;;;25.10;99.90;;;;;;6250185;22;20360;-75
2023/10/19 11:41:09;;;;;;;9.30;4.13;;;25.10;99.90;;;;;;6266147;23;20020;-78
2023/10/19 11:43:38;;;;;;;10.65;3.80;;;25.10;99.90;;;;;;6261991;23;20008;-77
2023/10/19 11:46:05;;;;;;;9.82;3.60;;;24.90;99.90;;;;;;6219808;23;20027;-75
2023/10/19 11:48:35;;;;;;;6.63;3.65;;;24.90;99.90;;;;;;6244136;22;20026;-76
2023/10/19 11:51:03;;;;;;;25.20;7.38;;;24.80;99.90;;;;;;6247015;23;20028;-79
2023/10/19 11:53:36;;;;;;;11.25;3.80;;;24.80;99.90;;;;;;6249586;23;20352;-77
2023/10/19 11:56:05;;;;;;;8.02;3.00;;;24.80;99.90;;;;;;6251694;23;20026;-77
2023/10/19 11:58:34;;;;;;;9.68;3.45;;;24.70;99.90;;;;;;6221070;23;20016;-76
2023/10/19 12:01:07;;;;;;;7.72;4.00;;;24.70;99.90;;;;;;6238812;23;20000;-75
2023/10/19 12:03:36;;;;;;;6.50;3.05;;;24.60;99.90;;;;;;6258528;23;20070;-79
2023/10/19 12:06:06;;;;;;;9.70;3.20;;;24.70;99.90;;;;;;6226637;23;20453;-78
2023/10/19 12:08:34;;;;;;;6.70;2.95;;;24.60;99.90;;;;;;6250283;22;20024;-76
2023/10/19 12:11:03;;;;;;;17.08;3.83;;;24.60;99.90;;;;;;6251967;23;20330;-76
2023/10/19 12:13:32;;;;;;;15.50;3.30;;;24.70;99.90;;;;;;6262497;22;20538;-83
2023/10/19 12:15:59;;;;;;;12.73;3.67;;;24.60;99.90;;;;;;6251005;23;20016;-84
2023/10/19 12:18:28;;;;;;;11.90;4.22;;;24.50;99.90;;;;;;6263585;22;20023;-82
2023/10/19 12:20:59;;;;;;;10.15;2.75;;;24.50;99.90;;;;;;6266118;23;20472;-84
2023/10/19 12:23:27;;;;;;;6.82;3.40;;;24.60;99.90;;;;;;6246248;23;20024;-83
2023/10/19 12:25:55;;;;;;;8.10;4.30;;;24.50;99.90;;;;;;6259054;23;20047;-82
2023/10/19 12:28:48;;;;;;;8.23;3.40;;;24.50;99.90;;;;;;6245300;22;20039;-85
2023/10/19 12:31:18;;;;;;;6.82;2.83;;;24.40;99.90;;;;;;6255585;23;20012;-83
2023/10/19 12:33:47;;;;;;;14.45;3.55;;;24.30;99.90;;;;;;6244488;23;20028;-85
2023/10/19 12:36:31;;;;;;;11.50;4.03;;;24.30;99.90;;;;;;6247116;23;20031;-83
2023/10/19 12:38:58;;;;;;;9.43;4.03;;;24.40;99.90;;;;;;6248513;22;20020;-83
2023/10/19 12:41:27;;;;;;;10.98;4.53;;;24.50;99.90;;;;;;6252364;23;20024;-84
2023/10/19 12:43:57;;;;;;;12.85;5.55;;;24.40;99.90;;;;;;6255404;23;20031;-84
2023/10/19 12:46:25;;;;;;;11.45;5.35;;;24.30;99.90;;;;;;6261966;23;20102;-84
2023/10/19 12:48:55;;;;;;;15.35;6.50;;;24.10;99.90;;;;;;6223193;23;20024;-84
2023/10/19 12:51:24;;;;;;;32.83;6.95;;;24.00;99.90;;;;;;6252810;23;20024;-84
2023/10/19 12:53:52;;;;;;;18.40;4.32;;;23.90;99.90;;;;;;6248990;23;20419;-84
2023/10/19 12:56:19;;;;;;;11.70;3.90;;;24.00;99.90;;;;;;6217999;23;20031;-84